Azalea, Oregon
Current Conditions -  °F | °C
As of 2:38 PM on Wednesday 22 Oct 2014 (Local Time) from KSXT Reporting Station
Light Rain Light Rain  
Wind Chill:   Ceiling: 200
Heat Index:   Visibility: 0.25mi
Dew Point:   Wind: 20mph
Humidity: 100%   Direction: 190°S
Pressure: 29.86"   Gusts: 38mph
Location:  42.8°N, 123.26°W
Report Text: KSXT 222138Z AUTO 19017G33KT 1/4SM -RA FG VV002 09/09 A2986 RMK AO2 PK WND 19036/2123 RAE03B37 P0000 T00890089
Loading
Personal Weather Stations






























Interactive Weather Map
Tropical Storm Tracking
New forecast layout! Learn more

10-Day Weather Forecast

Advertisements
Track Severe Weather on mobile